createdAt,value
2018-12-13T00:01:19.713Z,3.00
2018-12-13T00:03:48.846Z,3.00
2018-12-13T00:06:17.871Z,2.90
2018-12-13T00:08:46.950Z,2.90
2018-12-13T00:11:16.185Z,2.90
2018-12-13T00:13:45.228Z,3.00
2018-12-13T00:16:14.392Z,2.90
2018-12-13T00:18:43.385Z,3.00
2018-12-13T00:21:12.436Z,3.00
2018-12-13T00:23:41.538Z,3.00
2018-12-13T00:26:10.601Z,3.00
2018-12-13T00:28:40.466Z,3.00
2018-12-13T00:31:10.111Z,3.00
2018-12-13T00:33:39.443Z,3.00
2018-12-13T00:36:08.487Z,2.90
2018-12-13T00:38:37.671Z,3.00
2018-12-13T00:41:06.704Z,3.00
2018-12-13T00:43:35.983Z,2.90
2018-12-13T00:46:05.175Z,2.90
2018-12-13T00:48:34.287Z,2.90
2018-12-13T00:51:03.518Z,2.90
2018-12-13T00:53:32.665Z,2.90
2018-12-13T00:56:01.666Z,2.90
2018-12-13T00:58:30.770Z,2.90
2018-12-13T01:01:02.848Z,2.90
2018-12-13T01:03:32.003Z,2.90
2018-12-13T01:06:01.025Z,2.80
2018-12-13T01:08:30.725Z,2.80
2018-12-13T01:10:59.766Z,2.70
2018-12-13T01:13:28.932Z,2.70
2018-12-13T01:15:58.620Z,2.70
2018-12-13T01:18:27.625Z,2.60
2018-12-13T01:20:56.869Z,2.60
2018-12-13T01:23:26.062Z,2.60
2018-12-13T01:25:55.107Z,2.60
2018-12-13T01:28:24.222Z,2.60
2018-12-13T01:30:53.903Z,2.60
2018-12-13T01:33:23.067Z,2.60
2018-12-13T01:35:52.212Z,2.60
2018-12-13T01:38:21.309Z,2.60
2018-12-13T01:40:51.274Z,2.60
2018-12-13T01:43:20.423Z,2.60
2018-12-13T01:45:49.492Z,2.60
2018-12-13T01:48:18.640Z,2.70
2018-12-13T01:50:47.869Z,2.60
2018-12-13T01:53:17.130Z,2.60
2018-12-13T01:55:46.172Z,2.60
2018-12-13T01:58:15.385Z,2.60
2018-12-13T02:00:44.684Z,2.50
2018-12-13T02:03:13.887Z,2.40
2018-12-13T02:05:42.968Z,2.40
2018-12-13T02:08:12.043Z,2.40
2018-12-13T02:10:41.216Z,2.40
2018-12-13T02:13:11.180Z,2.30
2018-12-13T02:15:41.732Z,2.30
2018-12-13T02:18:11.781Z,2.20
2018-12-13T02:20:41.893Z,2.30
2018-12-13T02:23:10.916Z,2.20
2018-12-13T02:25:40.540Z,2.20
2018-12-13T02:28:09.584Z,2.20
2018-12-13T02:30:38.867Z,2.20
2018-12-13T02:33:08.845Z,2.20
2018-12-13T02:35:38.991Z,2.20
2018-12-13T02:38:08.242Z,2.10
2018-12-13T02:40:37.519Z,2.10
2018-12-13T02:43:07.193Z,2.10
2018-12-13T02:45:36.329Z,2.00
2018-12-13T02:48:05.584Z,2.00
2018-12-13T02:50:34.964Z,2.00
2018-12-13T02:53:04.137Z,2.10
2018-12-13T02:55:33.308Z,2.10
2018-12-13T02:58:02.372Z,2.10
2018-12-13T03:00:31.798Z,2.00
2018-12-13T03:03:01.348Z,2.00
2018-12-13T03:05:30.873Z,2.00
2018-12-13T03:08:00.771Z,2.00
2018-12-13T03:10:29.983Z,2.00
2018-12-13T03:12:59.115Z,2.00
2018-12-13T03:15:28.950Z,2.00
2018-12-13T03:17:57.988Z,1.90
2018-12-13T03:20:27.919Z,1.90
2018-12-13T03:22:59.152Z,1.90
2018-12-13T03:25:30.311Z,1.90
2018-12-13T03:28:01.260Z,1.90
2018-12-13T03:30:32.623Z,1.90
2018-12-13T03:33:03.369Z,1.80
2018-12-13T03:35:35.849Z,1.80
2018-12-13T03:38:05.111Z,1.80
2018-12-13T03:40:34.392Z,1.80
2018-12-13T03:43:03.694Z,1.80
2018-12-13T03:45:33.010Z,1.70
2018-12-13T03:48:02.954Z,1.70
2018-12-13T03:50:32.808Z,1.70
2018-12-13T03:53:03.435Z,1.70
2018-12-13T03:55:32.616Z,1.70
2018-12-13T03:58:01.650Z,1.70
2018-12-13T04:00:30.830Z,1.70
2018-12-13T04:03:00.058Z,1.70
2018-12-13T04:05:29.914Z,1.70
2018-12-13T04:07:58.984Z,1.70
2018-12-13T04:10:28.171Z,1.70
2018-12-13T04:12:57.524Z,1.70
2018-12-13T04:15:26.873Z,1.70
2018-12-13T04:17:56.153Z,1.70
2018-12-13T04:20:25.195Z,1.60
2018-12-13T04:22:55.006Z,1.70
2018-12-13T04:25:25.316Z,1.70
2018-12-13T04:27:54.375Z,1.60
2018-12-13T04:30:23.444Z,1.60
2018-12-13T04:32:52.558Z,1.70
2018-12-13T04:35:22.217Z,1.60
2018-12-13T04:37:51.315Z,1.70
2018-12-13T04:40:20.652Z,1.70
2018-12-13T04:42:49.839Z,1.70
2018-12-13T04:45:18.984Z,1.70
2018-12-13T04:47:48.547Z,1.60
2018-12-13T04:50:17.866Z,1.60
2018-12-13T04:52:47.028Z,1.60
2018-12-13T04:55:16.124Z,1.50
2018-12-13T04:57:45.185Z,1.50
2018-12-13T05:00:14.317Z,1.50
2018-12-13T05:02:43.385Z,1.50
2018-12-13T05:05:13.070Z,1.50
2018-12-13T05:07:42.242Z,1.50
2018-12-13T05:10:21.308Z,1.50
2018-12-13T05:12:50.443Z,1.50
2018-12-13T05:15:20.116Z,1.50
2018-12-13T05:17:49.531Z,1.70
2018-12-13T05:20:18.664Z,1.50
2018-12-13T05:22:48.241Z,1.50
2018-12-13T05:25:17.385Z,1.40
2018-12-13T05:27:46.513Z,1.40
2018-12-13T05:30:15.632Z,1.30
2018-12-13T05:32:45.588Z,1.40
2018-12-13T05:35:14.768Z,1.30
2018-12-13T05:37:48.244Z,1.30
2018-12-13T05:40:15.553Z,1.20
2018-12-13T05:42:44.659Z,1.20
2018-12-13T05:45:14.362Z,1.10
2018-12-13T05:47:43.484Z,1.10
2018-12-13T05:50:12.575Z,1.10
2018-12-13T05:52:41.672Z,1.10
2018-12-13T05:55:10.749Z,1.00
2018-12-13T05:57:40.616Z,1.00
2018-12-13T06:00:10.929Z,0.90
2018-12-13T06:02:40.129Z,0.90
2018-12-13T06:05:15.779Z,0.80
2018-12-13T06:07:44.839Z,0.80
2018-12-13T06:10:13.888Z,0.80
2018-12-13T06:12:42.976Z,0.70
2018-12-13T06:15:12.245Z,0.70
2018-12-13T06:17:41.310Z,0.70
2018-12-13T06:20:10.419Z,0.60
2018-12-13T06:22:39.720Z,0.60
2018-12-13T06:25:09.045Z,0.50
2018-12-13T06:27:38.525Z,0.50
2018-12-13T06:30:08.145Z,0.50
2018-12-13T06:32:37.343Z,0.50
2018-12-13T06:35:07.136Z,0.50
2018-12-13T06:37:36.322Z,0.50
2018-12-13T06:40:05.891Z,0.50
2018-12-13T06:42:35.424Z,0.50
2018-12-13T06:45:06.299Z,0.50
2018-12-13T06:47:35.372Z,0.50
2018-12-13T06:50:05.555Z,0.50
2018-12-13T06:52:34.726Z,0.40
2018-12-13T06:55:03.956Z,0.40
2018-12-13T06:57:33.036Z,0.40
2018-12-13T07:00:02.090Z,0.40
2018-12-13T07:02:31.240Z,0.30
2018-12-13T07:05:00.365Z,0.40
2018-12-13T07:07:29.569Z,0.30
2018-12-13T07:09:58.710Z,0.30
2018-12-13T07:12:27.822Z,0.30
2018-12-13T07:14:57.058Z,0.30
2018-12-13T07:17:26.143Z,0.30
2018-12-13T07:19:55.192Z,0.30
2018-12-13T07:22:24.547Z,0.20
2018-12-13T07:24:53.845Z,0.20
2018-12-13T07:27:23.168Z,0.20
2018-12-13T07:29:52.347Z,0.20
2018-12-13T07:32:21.513Z,0.20
2018-12-13T07:34:50.695Z,0.10
2018-12-13T07:37:19.754Z,0.10
2018-12-13T07:39:48.853Z,0.10
2018-12-13T07:42:17.875Z,0.10
2018-12-13T07:44:46.918Z,0.10
2018-12-13T07:47:15.999Z,0.00
2018-12-13T07:49:45.064Z,0.00
2018-12-13T07:52:14.172Z,0.00
2018-12-13T07:54:43.366Z,0.00
2018-12-13T07:57:12.465Z,0.00
2018-12-13T07:59:41.551Z,0.00
2018-12-13T08:02:10.681Z,0.00
2018-12-13T08:04:40.388Z,0.10
2018-12-13T08:07:09.525Z,0.10
2018-12-13T08:09:39.151Z,0.10
2018-12-13T08:12:08.224Z,0.00
2018-12-13T08:14:37.261Z,0.10
2018-12-13T08:17:06.335Z,0.10
2018-12-13T08:19:35.413Z,0.10
2018-12-13T08:22:05.684Z,0.00
2018-12-13T08:24:34.685Z,0.00
2018-12-13T08:27:04.108Z,0.00
2018-12-13T08:29:33.213Z,0.00
2018-12-13T08:32:02.285Z,0.10
2018-12-13T08:34:32.038Z,0.10
2018-12-13T08:37:01.143Z,0.20
2018-12-13T08:39:30.267Z,0.20
2018-12-13T08:41:59.413Z,0.20
2018-12-13T08:44:28.487Z,0.20
2018-12-13T08:46:57.566Z,0.20
2018-12-13T08:49:26.677Z,0.20
2018-12-13T08:51:55.781Z,0.20
2018-12-13T08:54:24.796Z,0.30
2018-12-13T08:56:53.817Z,0.30
2018-12-13T08:59:22.825Z,0.30
2018-12-13T09:01:52.828Z,0.40
2018-12-13T09:04:23.087Z,0.40
2018-12-13T09:06:52.941Z,0.40
2018-12-13T09:09:21.980Z,0.40
2018-12-13T09:11:51.110Z,0.50
2018-12-13T09:14:20.232Z,0.50
2018-12-13T09:16:49.393Z,0.50
2018-12-13T09:19:18.640Z,0.50
2018-12-13T09:21:48.642Z,0.50
2018-12-13T09:24:17.652Z,0.50
2018-12-13T09:26:46.742Z,0.40
2018-12-13T09:29:15.836Z,0.50
2018-12-13T09:31:44.908Z,0.50
2018-12-13T09:34:14.210Z,0.50
2018-12-13T09:36:43.315Z,0.50
2018-12-13T09:39:12.417Z,0.60
2018-12-13T09:41:41.621Z,0.50
2018-12-13T09:44:17.055Z,0.60
2018-12-13T09:46:47.267Z,0.60
2018-12-13T09:49:16.330Z,0.60
2018-12-13T09:51:45.383Z,0.60
2018-12-13T09:54:14.491Z,0.70
2018-12-13T09:56:43.581Z,0.70
2018-12-13T09:59:12.698Z,0.80
2018-12-13T10:01:42.263Z,0.80
2018-12-13T10:04:11.354Z,0.90
2018-12-13T10:06:40.511Z,0.90
2018-12-13T10:09:10.157Z,1.00
2018-12-13T10:11:39.995Z,1.10
2018-12-13T10:14:09.182Z,1.20
2018-12-13T10:16:38.457Z,1.30
2018-12-13T10:19:07.513Z,1.30
2018-12-13T10:21:36.693Z,1.30
2018-12-13T10:24:05.881Z,1.40
2018-12-13T10:26:35.107Z,1.40
2018-12-13T10:29:04.332Z,1.40
2018-12-13T10:31:33.495Z,1.40
2018-12-13T10:34:02.563Z,1.40
2018-12-13T10:36:31.625Z,1.40
2018-12-13T10:39:00.885Z,1.40
2018-12-13T10:41:29.929Z,1.40
2018-12-13T10:43:59.549Z,1.50
2018-12-13T10:46:28.597Z,1.50
2018-12-13T10:48:57.653Z,1.50
2018-12-13T10:51:26.708Z,1.50
2018-12-13T10:53:55.883Z,1.60
2018-12-13T10:56:24.967Z,1.60
2018-12-13T10:58:54.246Z,1.60
2018-12-13T11:01:28.671Z,1.70
2018-12-13T11:03:58.602Z,1.70
2018-12-13T11:06:27.669Z,1.80
2018-12-13T11:08:59.573Z,1.80
2018-12-13T11:11:28.600Z,1.80
2018-12-13T11:13:57.674Z,1.80
2018-12-13T11:16:26.801Z,1.70
2018-12-13T11:18:55.965Z,1.70
2018-12-13T11:21:25.013Z,1.70
2018-12-13T11:23:54.062Z,1.60
2018-12-13T11:26:23.075Z,1.60
2018-12-13T11:30:16.928Z,1.60
2018-12-13T11:32:45.965Z,1.50
2018-12-13T11:35:15.213Z,1.40
2018-12-13T11:37:44.300Z,1.40
2018-12-13T11:40:13.931Z,1.40
2018-12-13T11:42:43.767Z,1.40
2018-12-13T11:45:12.832Z,1.40
2018-12-13T11:47:41.936Z,1.50
2018-12-13T11:50:10.984Z,1.50
2018-12-13T11:52:40.738Z,1.50
2018-12-13T11:55:52.640Z,1.50
2018-12-13T11:58:22.155Z,1.50
2018-12-13T12:00:51.197Z,1.50
2018-12-13T12:03:20.302Z,1.40
2018-12-13T12:05:49.803Z,1.40
2018-12-13T12:08:19.002Z,1.40
2018-12-13T12:10:48.436Z,1.40
2018-12-13T12:13:17.479Z,1.40
2018-12-13T12:15:47.253Z,1.50
2018-12-13T12:18:16.352Z,1.50
2018-12-13T12:20:45.392Z,1.50
2018-12-13T12:23:15.170Z,1.50
2018-12-13T12:25:44.271Z,1.60
2018-12-13T12:28:13.356Z,1.60
2018-12-13T12:30:42.758Z,1.60
2018-12-13T12:33:11.833Z,1.60
2018-12-13T12:35:40.971Z,1.60
2018-12-13T12:38:10.080Z,1.60
2018-12-13T12:40:39.568Z,1.60
2018-12-13T12:43:08.623Z,1.70
2018-12-13T12:45:38.356Z,1.70
2018-12-13T12:48:07.551Z,1.70
2018-12-13T12:50:36.792Z,1.70
2018-12-13T12:53:06.296Z,1.70
2018-12-13T12:55:35.389Z,1.70
2018-12-13T12:58:04.546Z,1.80
2018-12-13T13:00:33.579Z,1.90
2018-12-13T13:03:02.737Z,2.00
2018-12-13T13:05:32.338Z,2.10
2018-12-13T13:08:01.486Z,2.10
2018-12-13T13:10:30.535Z,2.10
2018-12-13T13:12:59.655Z,2.10
2018-12-13T13:15:28.735Z,2.10
2018-12-13T13:17:57.906Z,2.10
2018-12-13T13:20:26.939Z,2.00
2018-12-13T13:22:56.131Z,1.90
2018-12-13T13:25:25.206Z,1.90
2018-12-13T13:27:54.450Z,1.90
2018-12-13T13:30:23.577Z,1.90
2018-12-13T13:32:52.664Z,1.90
2018-12-13T13:35:22.243Z,1.80
2018-12-13T13:37:51.408Z,1.80
2018-12-13T13:40:20.525Z,1.80
2018-12-13T13:42:51.030Z,1.80
2018-12-13T13:45:20.225Z,1.90
2018-12-13T13:47:49.956Z,1.90
2018-12-13T13:50:19.234Z,1.80
2018-12-13T13:52:48.446Z,1.80
2018-12-13T13:55:18.185Z,1.80
2018-12-13T13:57:47.630Z,1.80
2018-12-13T14:00:16.861Z,1.70
2018-12-13T14:02:46.110Z,1.70
2018-12-13T14:05:15.320Z,1.70
2018-12-13T14:07:44.375Z,1.70
2018-12-13T14:10:13.444Z,1.60
2018-12-13T14:12:42.672Z,1.70
2018-12-13T14:15:11.790Z,1.70
2018-12-13T14:17:40.911Z,1.80
2018-12-13T14:20:12.614Z,1.80
2018-12-13T14:22:41.716Z,1.90
2018-12-13T14:25:12.023Z,1.90
2018-12-13T14:27:42.120Z,1.90
2018-12-13T14:30:11.363Z,2.00
2018-12-13T14:32:40.884Z,1.90
2018-12-13T14:35:09.924Z,1.80
2018-12-13T14:37:39.341Z,1.80
2018-12-13T14:40:09.144Z,1.70
2018-12-13T14:42:38.673Z,1.70
2018-12-13T14:45:07.960Z,1.70
2018-12-13T14:47:37.098Z,1.60
2018-12-13T14:50:07.452Z,1.60
2018-12-13T14:52:37.258Z,1.60
2018-12-13T14:55:06.588Z,1.60
2018-12-13T14:57:35.792Z,1.60
2018-12-13T15:00:07.536Z,1.60
2018-12-13T15:02:38.520Z,1.60
2018-12-13T15:05:08.812Z,1.60
2018-12-13T15:07:38.804Z,1.60
2018-12-13T15:10:08.807Z,1.60
2018-12-13T15:12:39.875Z,1.60
2018-12-13T15:15:09.036Z,1.50
2018-12-13T15:17:39.890Z,1.50
2018-12-13T15:20:09.104Z,1.40
2018-12-13T15:22:38.580Z,1.40
2018-12-13T15:25:08.471Z,1.40
2018-12-13T15:27:37.663Z,1.40
2018-12-13T15:30:08.581Z,1.40
2018-12-13T15:32:37.655Z,1.40
2018-12-13T15:35:07.004Z,1.40
2018-12-13T15:37:36.556Z,1.40
2018-12-13T15:40:07.283Z,1.40
2018-12-13T15:42:36.463Z,1.50
2018-12-13T15:45:06.907Z,1.40
2018-12-13T15:47:35.987Z,1.40
2018-12-13T15:50:05.896Z,1.40
2018-12-13T15:52:35.106Z,1.50
2018-12-13T15:55:04.464Z,1.50
2018-12-13T15:57:33.747Z,1.50
2018-12-13T16:00:02.971Z,1.50
2018-12-13T16:02:32.214Z,1.50
2018-12-13T16:05:01.400Z,1.40
2018-12-13T16:07:30.541Z,1.40
2018-12-13T16:10:03.805Z,1.40
2018-12-13T16:12:31.474Z,1.50
2018-12-13T16:15:00.498Z,1.40
2018-12-13T16:17:29.506Z,1.40
2018-12-13T16:19:58.620Z,1.40
2018-12-13T16:22:27.747Z,1.40
2018-12-13T16:24:56.861Z,1.50
2018-12-13T16:27:26.367Z,1.50
2018-12-13T16:29:56.481Z,1.50
2018-12-13T16:32:25.588Z,1.50
2018-12-13T16:34:54.706Z,1.50
2018-12-13T16:37:24.038Z,1.50
2018-12-13T16:39:53.188Z,1.50
2018-12-13T16:42:22.267Z,1.50
2018-12-13T16:44:51.396Z,1.50
2018-12-13T16:47:20.607Z,1.50
2018-12-13T16:49:49.727Z,1.60
2018-12-13T16:52:18.829Z,1.60
2018-12-13T16:54:48.467Z,1.60
2018-12-13T16:57:17.688Z,1.60
2018-12-13T16:59:48.074Z,1.60
2018-12-13T17:02:18.408Z,1.60
2018-12-13T17:04:50.272Z,1.60
2018-12-13T17:07:19.587Z,1.60
2018-12-13T17:09:49.058Z,1.60
2018-12-13T17:12:19.521Z,1.60
2018-12-13T17:14:49.024Z,1.60
2018-12-13T17:17:20.326Z,1.50
2018-12-13T17:19:50.993Z,1.50
2018-12-13T17:22:20.976Z,1.50
2018-12-13T17:24:50.746Z,1.50
2018-12-13T17:27:20.586Z,1.50
2018-12-13T17:29:49.645Z,1.50
2018-12-13T17:32:20.366Z,1.50
2018-12-13T17:34:50.350Z,1.50
2018-12-13T17:37:20.825Z,1.50
2018-12-13T17:39:51.986Z,1.50
2018-12-13T17:42:22.071Z,1.50
2018-12-13T17:44:51.835Z,1.50
2018-12-13T17:47:21.405Z,1.40
2018-12-13T17:49:51.362Z,1.40
2018-12-13T17:52:21.115Z,1.40
2018-12-13T17:54:50.928Z,1.40
2018-12-13T17:57:21.159Z,1.40
2018-12-13T17:59:50.450Z,1.30
2018-12-13T18:02:20.331Z,1.30
2018-12-13T18:04:50.188Z,1.30
2018-12-13T18:07:19.984Z,1.40
2018-12-13T18:09:50.619Z,1.40
2018-12-13T18:12:21.611Z,1.40
2018-12-13T18:14:53.611Z,1.40
2018-12-13T18:17:24.506Z,1.30
2018-12-13T18:19:54.980Z,1.40
2018-12-13T18:22:25.054Z,1.30
2018-12-13T18:24:54.243Z,1.30
2018-12-13T18:27:23.360Z,1.30
2018-12-13T18:29:52.501Z,1.40
2018-12-13T18:32:22.487Z,1.30
2018-12-13T18:34:51.652Z,1.40
2018-12-13T18:37:20.780Z,1.40
2018-12-13T18:39:49.906Z,1.30
2018-12-13T18:42:19.939Z,1.40
2018-12-13T18:44:49.000Z,1.40
2018-12-13T18:47:18.252Z,1.40
2018-12-13T18:49:47.314Z,1.50
2018-12-13T18:52:16.463Z,1.50
2018-12-13T18:54:45.858Z,1.50
2018-12-13T18:57:15.075Z,1.50
2018-12-13T18:59:44.203Z,1.50
2018-12-13T19:02:13.409Z,1.50
2018-12-13T19:04:42.727Z,1.50
2018-12-13T19:07:13.478Z,1.50
2018-12-13T19:09:44.353Z,1.50
2018-12-13T19:12:15.518Z,1.50
2018-12-13T19:14:46.641Z,1.50
2018-12-13T19:17:17.198Z,1.50
2018-12-13T19:19:47.856Z,1.60
2018-12-13T19:22:17.340Z,1.60
2018-12-13T19:24:47.049Z,1.50
2018-12-13T19:27:22.685Z,1.50
2018-12-13T19:29:51.990Z,1.50
2018-12-13T19:32:21.181Z,1.40
2018-12-13T19:34:50.964Z,1.40
2018-12-13T19:37:20.111Z,1.30
2018-12-13T19:39:49.281Z,1.30
2018-12-13T19:42:18.372Z,1.30
2018-12-13T19:44:48.771Z,1.20
2018-12-13T19:47:25.464Z,1.20
2018-12-13T19:49:55.277Z,1.20
2018-12-13T19:52:26.504Z,1.10
2018-12-13T19:54:57.676Z,1.10
2018-12-13T19:57:27.543Z,1.10
2018-12-13T19:59:56.910Z,1.10
2018-12-13T20:02:26.120Z,1.10
2018-12-13T20:04:55.261Z,1.10
2018-12-13T20:07:25.913Z,1.00
2018-12-13T20:09:55.067Z,1.00
2018-12-13T20:12:24.176Z,1.00
2018-12-13T20:14:54.251Z,1.00
2018-12-13T20:17:23.400Z,1.00
2018-12-13T20:19:52.715Z,1.00
2018-12-13T20:22:21.864Z,1.00
2018-12-13T20:24:51.058Z,0.90
2018-12-13T20:27:20.705Z,1.00
2018-12-13T20:29:49.875Z,0.90
2018-12-13T20:32:19.329Z,0.90
2018-12-13T20:34:48.440Z,0.90
2018-12-13T20:37:17.519Z,1.00
2018-12-13T20:39:47.319Z,0.90
2018-12-13T20:42:16.403Z,1.00
2018-12-13T20:44:46.323Z,1.00
2018-12-13T20:47:15.502Z,1.00
2018-12-13T20:49:44.629Z,0.90
2018-12-13T20:52:14.123Z,0.90
2018-12-13T20:54:43.235Z,0.90
2018-12-13T20:57:13.145Z,0.90
2018-12-13T20:59:42.255Z,0.90
2018-12-13T21:02:11.862Z,0.90
2018-12-13T21:04:41.112Z,0.90
2018-12-13T21:07:16.822Z,0.90
2018-12-13T21:09:45.922Z,1.00
2018-12-13T21:12:15.033Z,1.00
2018-12-13T21:14:44.392Z,1.00
2018-12-13T21:17:13.610Z,1.10
2018-12-13T21:19:42.784Z,1.10
2018-12-13T21:22:12.016Z,1.10
2018-12-13T21:24:41.217Z,1.10
2018-12-13T21:27:10.452Z,1.10
2018-12-13T21:29:40.460Z,1.10
2018-12-13T21:32:09.537Z,1.10
2018-12-13T21:34:38.733Z,1.10
2018-12-13T21:37:07.801Z,1.10
2018-12-13T21:39:36.932Z,1.10
2018-12-13T21:42:06.588Z,1.10
2018-12-13T21:44:35.645Z,1.10
2018-12-13T21:47:04.779Z,1.00
2018-12-13T21:49:33.996Z,1.00
2018-12-13T21:52:03.068Z,1.00
2018-12-13T21:54:32.209Z,1.00
2018-12-13T21:57:01.375Z,1.00
2018-12-13T21:59:30.453Z,1.00
2018-12-13T22:01:59.514Z,1.00
2018-12-13T22:04:28.564Z,1.00
2018-12-13T22:06:57.778Z,1.00
2018-12-13T22:09:26.843Z,1.00
2018-12-13T22:11:56.564Z,1.00
2018-12-13T22:14:25.672Z,1.00
2018-12-13T22:16:54.837Z,1.00
2018-12-13T22:19:24.384Z,1.00
2018-12-13T22:21:53.548Z,1.00
2018-12-13T22:24:22.710Z,0.90
2018-12-13T22:26:51.765Z,1.00
2018-12-13T22:29:21.590Z,1.00
2018-12-13T22:31:51.608Z,1.00
2018-12-13T22:34:21.331Z,1.00
2018-12-13T22:36:50.808Z,0.90
2018-12-13T22:39:19.957Z,0.90
2018-12-13T22:41:49.612Z,1.00
2018-12-13T22:44:18.899Z,1.00
2018-12-13T22:46:47.985Z,1.00
2018-12-13T22:49:18.221Z,1.00
2018-12-13T22:51:47.289Z,1.00
2018-12-13T22:54:16.572Z,1.00
2018-12-13T22:56:45.716Z,1.00
2018-12-13T22:59:15.374Z,1.00
2018-12-13T23:01:44.720Z,0.90
2018-12-13T23:04:13.856Z,1.00
2018-12-13T23:06:42.956Z,1.00
2018-12-13T23:09:12.047Z,0.90
2018-12-13T23:11:41.310Z,0.90
2018-12-13T23:14:10.607Z,0.90
2018-12-13T23:16:42.285Z,0.90
2018-12-13T23:19:11.367Z,0.90
2018-12-13T23:21:41.636Z,0.90
2018-12-13T23:24:11.006Z,0.90
2018-12-13T23:26:41.512Z,0.90
2018-12-13T23:29:10.664Z,0.90
2018-12-13T23:31:40.025Z,0.90
2018-12-13T23:34:09.160Z,1.00
2018-12-13T23:36:39.184Z,1.00
2018-12-13T23:39:08.852Z,1.00
2018-12-13T23:41:39.551Z,0.90
2018-12-13T23:44:08.856Z,0.90
2018-12-13T23:46:38.030Z,0.90
2018-12-13T23:49:07.133Z,0.90
2018-12-13T23:51:36.306Z,0.90
2018-12-13T23:54:05.713Z,0.90
2018-12-13T23:56:34.800Z,1.00
2018-12-13T23:59:04.156Z,1.00
